• Join FlightAware (Why Join?)
  • Login
  • US Flag 
11:27AM EDT


 

Airport Tracker/Info


-or-


 

Live Flight TrackerFlight Track Log ✈ SKW2923 ✈ 11-May-2013 ✈ KPHX - KSBA

Flight Track Log - Related Links

Times and Time Zones

All times are in EDT time to prevent confusion due to time zone crossing. See the SKW2923 flight status page for this flight to view local times or setup timezone preferences in your user account.

Time Position Orientation Groundspeed Altitude Reporting Facility
EDT Latitude Longitude Course Direction KTS MPH feet Rate Location/Type
11:17PM 33.4333 -111.9667 281° West 173 199 2,300  Level Phoenix TRACON
11:18PM 33.4333 -111.9000 90° East 219 252 4,000 1,500 Climbing Phoenix TRACON
11:19PM 33.4403 -111.8647 77° East 219 252 4,800 1,920 Climbing Albuquerque Center
11:20PM 33.4139 -111.7819 111° Southeast 261 300 7,000 2,040 Climbing Albuquerque Center
11:21PM 33.3611 -111.7186 135° Southeast 289 333 9,000 1,560 Climbing Albuquerque Center
11:22PM 33.3011 -111.7836 222° Southwest 310 357 10,200 1,200 Climbing Albuquerque Center
11:23PM 33.4521 -112.8292 281° West  Level FlightAware Approximate
11:23PM 33.3181 -111.8906 281° West 324 373 11,500  Level Albuquerque Center
11:24PM 33.3356 -112.0103 280° West 350 403 12,400 1,020 Climbing Albuquerque Center
11:25PM 33.3550 -112.1417 280° West 383 441 13,600 1,440 Climbing Albuquerque Center
11:26PM 33.3750 -112.2728 280° West 396 456 15,400 1,500 Climbing Albuquerque Center
11:27PM 33.3939 -112.4069 280° West 403 464 16,700 1,260 Climbing Albuquerque Center
11:28PM 33.4139 -112.5417 280° West 408 470 18,000 1,260 Climbing Albuquerque Center
11:29PM 33.4347 -112.6872 280° West 411 473 19,300 1,260 Climbing Albuquerque Center
11:30PM 33.4533 -112.8206 280° West 410 472 20,600 1,080 Climbing Albuquerque Center
11:31PM 33.4783 -112.9525 283° West 408 470 21,600 960 Climbing Albuquerque Center
11:32PM 33.5042 -113.0844 283° West 409 471 22,600 900 Climbing Albuquerque Center
11:33PM 33.5294 -113.2197 283° West 415 478 23,500 900 Climbing Albuquerque Center
11:34PM 33.5547 -113.3539 283° West 415 478 24,500 1,080 Climbing Albuquerque Center
11:35PM 33.5856 -113.5147 283° West 415 478 25,700 1,020 Climbing Albuquerque Center
11:36PM 33.6114 -113.6478 283° West 412 474 26,600 780 Climbing Albuquerque Center
11:37PM 33.6333 -113.7772 282° West 413 475 27,300 600 Climbing Albuquerque Center
11:38PM 33.6586 -113.9139 283° West 417 480 27,900 540 Climbing Albuquerque Center
11:39PM 33.6844 -114.0533 283° West 424 488 28,400 540 Climbing Albuquerque Center
11:40PM 33.7083 -114.1964 281° West 433 498 29,000 540 Climbing Albuquerque Center
11:41PM 33.7317 -114.3406 281° West 431 496 29,600 480 Climbing Albuquerque Center
11:42PM 33.7544 -114.4822 281° West 432 497 30,000 180 Climbing Albuquerque Center
11:43PM 33.7828 -114.6689 280° West 447 514 30,000  Level Los Angeles Center
11:44PM 33.8069 -114.8186 281° West 458 527 30,000  Level Los Angeles Center
11:45PM 33.8303 -114.9717 280° West 466 536 30,000  Level Los Angeles Center
11:46PM 33.8533 -115.1253 280° West 469 540 30,000  Level Los Angeles Center
11:47PM 33.8764 -115.2803 280° West 471 542 30,000  Level Los Angeles Center
11:48PM 33.9092 -115.4308 285° West 472 543 30,000  Level Los Angeles Center
11:49PM 33.9694 -115.5636 299° West 456 525 30,000  Level Los Angeles Center
11:50PM 34.0325 -115.6961 300° West 458 527 30,000  Level Los Angeles Center
11:51PM 34.0994 -115.8619 296° West 465 535 30,000  Level Los Angeles Center
11:52PM 34.1133 -116.0186 276° West 477 549 30,000  Level Los Angeles Center
11:53PM 34.1292 -116.1781 277° West 481 554 30,000  Level Los Angeles Center
11:54PM 34.1428 -116.3283 276° West 481 554 30,000  Level Los Angeles Center
11:56PM 34.1611 -116.5208 277° West 481 554 30,000  Level Los Angeles Center
11:57PM 34.1769 -116.6781 277° West 477 549 30,000  Level Los Angeles Center
11:58PM 34.1908 -116.8367 276° West 476 548 30,000  Level Los Angeles Center
11:59PM 34.2050 -116.9961 276° West 477 549 30,000  Level Los Angeles Center
12:00AM 34.2189 -117.1533 276° West 473 544 30,000  Level Los Angeles Center
12:01AM 34.2339 -117.3211 276° West 472 543 30,000  Level Los Angeles Center
12:02AM 34.2481 -117.4772 276° West 470 541 30,000  Level Los Angeles Center
12:03AM 34.2639 -117.6633 276° West 469 540 30,000  Level Los Angeles Center
12:04AM 34.2761 -117.8181 276° West 467 537 30,000  Level Los Angeles Center
12:05AM 34.2883 -117.9739 275° West 468 539 30,000  Level Los Angeles Center
12:06AM 34.3003 -118.1281 275° West 466 536 30,000 -900 Level Los Angeles Center
12:07AM 34.3122 -118.2789 276° West 460 529 28,200 -1,920 Descending Los Angeles Center
12:08AM 34.3233 -118.4217 275° West 440 506 26,100 -1,980 Descending Los Angeles Center
12:09AM 34.3339 -118.5658 275° West 431 496 24,200 -1,080 Descending Los Angeles Center
12:10AM 34.3439 -118.7150 275° West 440 506 24,000 -300 Descending Los Angeles Center
12:11AM 34.3542 -118.8617 275° West 441 507 23,600 -1,980 Descending Los Angeles Center
12:12AM 34.3461 -119.0342 267° West 431 496 20,000 -3,120 Descending Los Angeles Center
12:13AM 34.3369 -119.1542 265° West 360 414 17,300 -3,360 Descending Los Angeles Center
12:14AM 34.3275 -119.2678 264° West 362 417 13,500 -4,020 Descending Los Angeles Center
12:14AM 34.3250 -119.3236 267° West 357 411 11,500 -2,820 Descending Los Angeles Center
12:15AM 34.3183 -119.3875 263° West 340 391 10,400 -1,920 Descending Los Angeles Center
12:15AM 34.3147 -119.4311 264° West 300 345 9,600 -1,500 Descending Los Angeles Center
12:16AM 34.3100 -119.4797 263° West 290 334 8,900 -1,020 Descending Los Angeles Center
12:16AM 34.3075 -119.5144 265° West 247 284 8,600 -1,800 Descending Los Angeles Center
12:17AM 34.3014 -119.5550 260° West 254 292 7,100 -3,120 Descending Los Angeles Center
12:17AM 34.3047 -119.5883 277° West 217 250 5,500 -2,880 Descending Los Angeles Center
12:18AM 34.3086 -119.6228 278° West 227 261 4,200 -2,280 Descending Los Angeles Center
12:18AM 34.3283 -119.6456 316° Northwest 199 229 3,200 -1,500 Descending Los Angeles Center
12:19AM 34.3392 -119.6750 294° West 203 234 2,700 -900 Descending Los Angeles Center
12:19AM 34.3569 -119.6961 316° Northwest 177 204 2,300 -720 Descending Los Angeles Center
12:20AM 34.3717 -119.7183 309° West 185 213 2,000 -420 Descending Los Angeles Center
12:20AM 34.3936 -119.7442 316° Northwest 171 197 1,900 -300 Descending Los Angeles Center
12:21AM 34.4028 -119.7578 309° West 173 199 1,700 -600 Descending Los Angeles Center
12:21AM 34.4219 -119.7742 325° Northwest 145 167 1,300 -600 Descending Los Angeles Center
12:22AM 34.4319 -119.7917 305° West 155 178 1,100 -1,020 Descending Los Angeles Center
12:23AM 34.4281 -119.8217 261° West 145 167 300 -900 Descending Los Angeles Center
12:23AM 34.4372 -119.8367 307° West 141 162 200 -240 Descending Los Angeles Center
12:25AM 34.4262 -119.8415 292° West  Level Estimated